<?xml version="1.0" encoding="UTF-8" standalone="no" ?>
<gpx xmlns="http://www.topografix.com/GPX/1/1" xmlns:xsi="http://www.w3.org/2001/XMLSchema-instance" xsi:schemaLocation="http://www.topografix.com/GPX/1/1 http://www.topografix.com/GPX/1/1/gpx.xsd" version="1.1" creator="VisuGPX - https://www.visugpx.com">
  <metadata>
    <name>FoussayPaire_Autour_19-22km</name>
    <desc><![CDATA[gnerando idor;8986892_8986940_8986962_9129062_9131846]]></desc>
  </metadata>
  <trk>
    <name><![CDATA[FoussaisP_3CgiteLaRouliere_18.6km-9131846]]></name>
    <extensions>
      <line xmlns="http://www.topografix.com/GPX/gpx_style/0/2">
        <color>FFFF00</color>
        <width>4</width>
      </line>
    </extensions>
    <trkseg>
      <trkpt lat="46.50601" lon="-0.66808">
        <ele>60</ele>
        <time>2023-11-01T17:32:00Z</time>
      </trkpt>
      <trkpt lat="46.50541" lon="-0.6701">
        <ele>66</ele>
        <time>2023-11-01T17:35:22Z</time>
      </trkpt>
      <trkpt lat="46.50566" lon="-0.67227">
        <ele>68</ele>
        <time>2023-11-01T17:38:44Z</time>
      </trkpt>
      <trkpt lat="46.50516" lon="-0.67284">
        <ele>63</ele>
        <time>2023-11-01T17:40:09Z</time>
      </trkpt>
      <trkpt lat="46.50526" lon="-0.67393">
        <ele>59</ele>
        <time>2023-11-01T17:41:50Z</time>
      </trkpt>
      <trkpt lat="46.50566" lon="-0.67443">
        <ele>60</ele>
        <time>2023-11-01T17:43:00Z</time>
      </trkpt>
      <trkpt lat="46.50566" lon="-0.67587">
        <ele>64</ele>
        <time>2023-11-01T17:45:13Z</time>
      </trkpt>
      <trkpt lat="46.50298" lon="-0.67623">
        <ele>59</ele>
        <time>2023-11-01T17:51:12Z</time>
      </trkpt>
      <trkpt lat="46.50174" lon="-0.67811">
        <ele>58</ele>
        <time>2023-11-01T17:55:11Z</time>
      </trkpt>
      <trkpt lat="46.50243" lon="-0.68035">
        <ele>61</ele>
        <time>2023-11-01T17:58:56Z</time>
      </trkpt>
      <trkpt lat="46.50228" lon="-0.68266">
        <ele>61</ele>
        <time>2023-11-01T18:02:30Z</time>
      </trkpt>
      <trkpt lat="46.50184" lon="-0.68331">
        <ele>61</ele>
        <time>2023-11-01T18:03:53Z</time>
      </trkpt>
      <trkpt lat="46.50201" lon="-0.68429">
        <ele>62</ele>
        <time>2023-11-01T18:05:26Z</time>
      </trkpt>
      <trkpt lat="46.50136" lon="-0.6864">
        <ele>60</ele>
        <time>2023-11-01T18:08:58Z</time>
      </trkpt>
      <trkpt lat="46.50068" lon="-0.68635">
        <ele>55</ele>
        <time>2023-11-01T18:10:29Z</time>
      </trkpt>
      <trkpt lat="46.50022" lon="-0.68719">
        <ele>56</ele>
        <time>2023-11-01T18:12:08Z</time>
      </trkpt>
      <trkpt lat="46.50232" lon="-0.69184">
        <ele>71</ele>
        <time>2023-11-01T18:20:39Z</time>
      </trkpt>
      <trkpt lat="46.50111" lon="-0.69293">
        <ele>71</ele>
        <time>2023-11-01T18:23:49Z</time>
      </trkpt>
      <trkpt lat="46.5002" lon="-0.69487">
        <ele>79</ele>
        <time>2023-11-01T18:27:24Z</time>
      </trkpt>
      <trkpt lat="46.50048" lon="-0.69634">
        <ele>81</ele>
        <time>2023-11-01T18:29:44Z</time>
      </trkpt>
      <trkpt lat="46.50072" lon="-0.69888">
        <ele>87</ele>
        <time>2023-11-01T18:33:40Z</time>
      </trkpt>
      <trkpt lat="46.50122" lon="-0.70144">
        <ele>94</ele>
        <time>2023-11-01T18:37:44Z</time>
      </trkpt>
      <trkpt lat="46.50334" lon="-0.71024">
        <ele>105</ele>
        <time>2023-11-01T18:52:01Z</time>
      </trkpt>
      <trkpt lat="46.50491" lon="-0.71379">
        <ele>102</ele>
        <time>2023-11-01T18:58:28Z</time>
      </trkpt>
      <trkpt lat="46.50619" lon="-0.71477">
        <ele>104</ele>
        <time>2023-11-01T19:01:41Z</time>
      </trkpt>
      <trkpt lat="46.50744" lon="-0.71489">
        <ele>100</ele>
        <time>2023-11-01T19:04:29Z</time>
      </trkpt>
      <trkpt lat="46.50857" lon="-0.71635">
        <ele>99</ele>
        <time>2023-11-01T19:07:50Z</time>
      </trkpt>
      <trkpt lat="46.50941" lon="-0.71662">
        <ele>98</ele>
        <time>2023-11-01T19:09:45Z</time>
      </trkpt>
      <trkpt lat="46.5109" lon="-0.7157">
        <ele>92</ele>
        <time>2023-11-01T19:13:21Z</time>
      </trkpt>
      <trkpt lat="46.51327" lon="-0.71723">
        <ele>77</ele>
        <time>2023-11-01T19:19:07Z</time>
      </trkpt>
      <trkpt lat="46.51557" lon="-0.71753">
        <ele>84</ele>
        <time>2023-11-01T19:24:16Z</time>
      </trkpt>
      <trkpt lat="46.51782" lon="-0.71716">
        <ele>93</ele>
        <time>2023-11-01T19:29:18Z</time>
      </trkpt>
      <trkpt lat="46.51994" lon="-0.71102">
        <ele>93</ele>
        <time>2023-11-01T19:39:49Z</time>
      </trkpt>
      <trkpt lat="46.52034" lon="-0.70913">
        <ele>94</ele>
        <time>2023-11-01T19:42:50Z</time>
      </trkpt>
      <trkpt lat="46.52247" lon="-0.70613">
        <ele>91</ele>
        <time>2023-11-01T19:49:26Z</time>
      </trkpt>
      <trkpt lat="46.52432" lon="-0.70602">
        <ele>88</ele>
        <time>2023-11-01T19:53:33Z</time>
      </trkpt>
      <trkpt lat="46.52558" lon="-0.7072">
        <ele>85</ele>
        <time>2023-11-01T19:56:53Z</time>
      </trkpt>
      <trkpt lat="46.52661" lon="-0.7044">
        <ele>89</ele>
        <time>2023-11-01T20:01:45Z</time>
      </trkpt>
      <trkpt lat="46.52739" lon="-0.70559">
        <ele>85</ele>
        <time>2023-11-01T20:04:15Z</time>
      </trkpt>
      <trkpt lat="46.52928" lon="-0.70424">
        <ele>87</ele>
        <time>2023-11-01T20:08:56Z</time>
      </trkpt>
      <trkpt lat="46.52907" lon="-0.7028">
        <ele>87</ele>
        <time>2023-11-01T20:11:12Z</time>
      </trkpt>
      <trkpt lat="46.53116" lon="-0.70162">
        <ele>79</ele>
        <time>2023-11-01T20:16:11Z</time>
      </trkpt>
      <trkpt lat="46.53151" lon="-0.70224">
        <ele>77</ele>
        <time>2023-11-01T20:17:24Z</time>
      </trkpt>
      <trkpt lat="46.53268" lon="-0.70256">
        <ele>75</ele>
        <time>2023-11-01T20:20:03Z</time>
      </trkpt>
      <trkpt lat="46.53327" lon="-0.70485">
        <ele>73</ele>
        <time>2023-11-01T20:23:48Z</time>
      </trkpt>
      <trkpt lat="46.5335" lon="-0.70465">
        <ele>73</ele>
        <time>2023-11-01T20:24:24Z</time>
      </trkpt>
      <trkpt lat="46.53491" lon="-0.70566">
        <ele>80</ele>
        <time>2023-11-01T20:27:53Z</time>
      </trkpt>
      <trkpt lat="46.53663" lon="-0.70772">
        <ele>80</ele>
        <time>2023-11-01T20:32:51Z</time>
      </trkpt>
      <trkpt lat="46.53748" lon="-0.70698">
        <ele>85</ele>
        <time>2023-11-01T20:35:03Z</time>
      </trkpt>
      <trkpt lat="46.53929" lon="-0.70586">
        <ele>88</ele>
        <time>2023-11-01T20:39:25Z</time>
      </trkpt>
      <trkpt lat="46.54026" lon="-0.70595">
        <ele>88</ele>
        <time>2023-11-01T20:41:35Z</time>
      </trkpt>
      <trkpt lat="46.54273" lon="-0.7053">
        <ele>92</ele>
        <time>2023-11-01T20:47:10Z</time>
      </trkpt>
      <trkpt lat="46.54438" lon="-0.70483">
        <ele>95</ele>
        <time>2023-11-01T20:50:55Z</time>
      </trkpt>
      <trkpt lat="46.54371" lon="-0.70177">
        <ele>89</ele>
        <time>2023-11-01T20:55:49Z</time>
      </trkpt>
      <trkpt lat="46.54422" lon="-0.70157">
        <ele>90</ele>
        <time>2023-11-01T20:57:00Z</time>
      </trkpt>
      <trkpt lat="46.54406" lon="-0.70035">
        <ele>91</ele>
        <time>2023-11-01T20:58:54Z</time>
      </trkpt>
      <trkpt lat="46.54335" lon="-0.70027">
        <ele>93</ele>
        <time>2023-11-01T21:00:29Z</time>
      </trkpt>
      <trkpt lat="46.54302" lon="-0.69967">
        <ele>92</ele>
        <time>2023-11-01T21:01:39Z</time>
      </trkpt>
      <trkpt lat="46.54244" lon="-0.69963">
        <ele>91</ele>
        <time>2023-11-01T21:02:57Z</time>
      </trkpt>
      <trkpt lat="46.54192" lon="-0.69989">
        <ele>89</ele>
        <time>2023-11-01T21:04:10Z</time>
      </trkpt>
      <trkpt lat="46.54067" lon="-0.69924">
        <ele>85</ele>
        <time>2023-11-01T21:07:07Z</time>
      </trkpt>
      <trkpt lat="46.53969" lon="-0.69835">
        <ele>82</ele>
        <time>2023-11-01T21:09:41Z</time>
      </trkpt>
      <trkpt lat="46.53921" lon="-0.69878">
        <ele>81</ele>
        <time>2023-11-01T21:10:57Z</time>
      </trkpt>
      <trkpt lat="46.53837" lon="-0.6972">
        <ele>86</ele>
        <time>2023-11-01T21:14:00Z</time>
      </trkpt>
      <trkpt lat="46.53744" lon="-0.69815">
        <ele>86</ele>
        <time>2023-11-01T21:16:32Z</time>
      </trkpt>
      <trkpt lat="46.53701" lon="-0.69752">
        <ele>89</ele>
        <time>2023-11-01T21:17:53Z</time>
      </trkpt>
      <trkpt lat="46.53634" lon="-0.69415">
        <ele>90</ele>
        <time>2023-11-01T21:23:15Z</time>
      </trkpt>
      <trkpt lat="46.53558" lon="-0.69356">
        <ele>88</ele>
        <time>2023-11-01T21:25:10Z</time>
      </trkpt>
      <trkpt lat="46.53489" lon="-0.69194">
        <ele>90</ele>
        <time>2023-11-01T21:28:05Z</time>
      </trkpt>
      <trkpt lat="46.53436" lon="-0.69133">
        <ele>91</ele>
        <time>2023-11-01T21:29:35Z</time>
      </trkpt>
      <trkpt lat="46.53324" lon="-0.69185">
        <ele>91</ele>
        <time>2023-11-01T21:32:12Z</time>
      </trkpt>
      <trkpt lat="46.53288" lon="-0.69184">
        <ele>92</ele>
        <time>2023-11-01T21:33:00Z</time>
      </trkpt>
      <trkpt lat="46.53263" lon="-0.6911">
        <ele>94</ele>
        <time>2023-11-01T21:34:16Z</time>
      </trkpt>
      <trkpt lat="46.53253" lon="-0.68914">
        <ele>98</ele>
        <time>2023-11-01T21:37:16Z</time>
      </trkpt>
      <trkpt lat="46.53228" lon="-0.68825">
        <ele>96</ele>
        <time>2023-11-01T21:38:45Z</time>
      </trkpt>
      <trkpt lat="46.5329" lon="-0.68774">
        <ele>96</ele>
        <time>2023-11-01T21:40:20Z</time>
      </trkpt>
      <trkpt lat="46.53131" lon="-0.68293">
        <ele>85</ele>
        <time>2023-11-01T21:48:30Z</time>
      </trkpt>
      <trkpt lat="46.53148" lon="-0.68274">
        <ele>85</ele>
        <time>2023-11-01T21:48:58Z</time>
      </trkpt>
      <trkpt lat="46.53123" lon="-0.68197">
        <ele>83</ele>
        <time>2023-11-01T21:50:16Z</time>
      </trkpt>
      <trkpt lat="46.53154" lon="-0.68136">
        <ele>83</ele>
        <time>2023-11-01T21:51:26Z</time>
      </trkpt>
      <trkpt lat="46.53194" lon="-0.67896">
        <ele>82</ele>
        <time>2023-11-01T21:55:13Z</time>
      </trkpt>
      <trkpt lat="46.53214" lon="-0.67841">
        <ele>84</ele>
        <time>2023-11-01T21:56:10Z</time>
      </trkpt>
      <trkpt lat="46.53381" lon="-0.67697">
        <ele>92</ele>
        <time>2023-11-01T22:00:29Z</time>
      </trkpt>
      <trkpt lat="46.53337" lon="-0.67522">
        <ele>88</ele>
        <time>2023-11-01T22:03:20Z</time>
      </trkpt>
      <trkpt lat="46.53298" lon="-0.67534">
        <ele>88</ele>
        <time>2023-11-01T22:04:13Z</time>
      </trkpt>
      <trkpt lat="46.53177" lon="-0.67506">
        <ele>85</ele>
        <time>2023-11-01T22:06:57Z</time>
      </trkpt>
      <trkpt lat="46.53059" lon="-0.67484">
        <ele>84</ele>
        <time>2023-11-01T22:09:35Z</time>
      </trkpt>
      <trkpt lat="46.52913" lon="-0.67537">
        <ele>78</ele>
        <time>2023-11-01T22:12:56Z</time>
      </trkpt>
      <trkpt lat="46.52888" lon="-0.67369">
        <ele>78</ele>
        <time>2023-11-01T22:15:34Z</time>
      </trkpt>
      <trkpt lat="46.52833" lon="-0.67194">
        <ele>78</ele>
        <time>2023-11-01T22:18:31Z</time>
      </trkpt>
      <trkpt lat="46.52804" lon="-0.66995">
        <ele>82</ele>
        <time>2023-11-01T22:21:37Z</time>
      </trkpt>
      <trkpt lat="46.52753" lon="-0.66813">
        <ele>80</ele>
        <time>2023-11-01T22:24:38Z</time>
      </trkpt>
      <trkpt lat="46.52554" lon="-0.67012">
        <ele>73</ele>
        <time>2023-11-01T22:30:00Z</time>
      </trkpt>
      <trkpt lat="46.52459" lon="-0.66999">
        <ele>70</ele>
        <time>2023-11-01T22:32:08Z</time>
      </trkpt>
      <trkpt lat="46.5245" lon="-0.66867">
        <ele>71</ele>
        <time>2023-11-01T22:34:09Z</time>
      </trkpt>
      <trkpt lat="46.52408" lon="-0.6675">
        <ele>69</ele>
        <time>2023-11-01T22:36:11Z</time>
      </trkpt>
      <trkpt lat="46.52343" lon="-0.66663">
        <ele>64</ele>
        <time>2023-11-01T22:38:08Z</time>
      </trkpt>
      <trkpt lat="46.52261" lon="-0.66471">
        <ele>68</ele>
        <time>2023-11-01T22:41:36Z</time>
      </trkpt>
      <trkpt lat="46.52231" lon="-0.66373">
        <ele>70</ele>
        <time>2023-11-01T22:43:14Z</time>
      </trkpt>
      <trkpt lat="46.52112" lon="-0.66211">
        <ele>71</ele>
        <time>2023-11-01T22:46:52Z</time>
      </trkpt>
      <trkpt lat="46.52043" lon="-0.66052">
        <ele>72</ele>
        <time>2023-11-01T22:49:45Z</time>
      </trkpt>
      <trkpt lat="46.51981" lon="-0.6568">
        <ele>70</ele>
        <time>2023-11-01T22:55:36Z</time>
      </trkpt>
      <trkpt lat="46.51889" lon="-0.65667">
        <ele>69</ele>
        <time>2023-11-01T22:57:39Z</time>
      </trkpt>
      <trkpt lat="46.51748" lon="-0.65615">
        <ele>68</ele>
        <time>2023-11-01T23:00:54Z</time>
      </trkpt>
      <trkpt lat="46.51674" lon="-0.65584">
        <ele>67</ele>
        <time>2023-11-01T23:02:36Z</time>
      </trkpt>
      <trkpt lat="46.51406" lon="-0.65579">
        <ele>63</ele>
        <time>2023-11-01T23:08:34Z</time>
      </trkpt>
      <trkpt lat="46.51237" lon="-0.65604">
        <ele>58</ele>
        <time>2023-11-01T23:12:21Z</time>
      </trkpt>
      <trkpt lat="46.51158" lon="-0.65596">
        <ele>55</ele>
        <time>2023-11-01T23:14:06Z</time>
      </trkpt>
      <trkpt lat="46.51022" lon="-0.65661">
        <ele>53</ele>
        <time>2023-11-01T23:17:17Z</time>
      </trkpt>
      <trkpt lat="46.50903" lon="-0.6582">
        <ele>55</ele>
        <time>2023-11-01T23:20:53Z</time>
      </trkpt>
      <trkpt lat="46.50877" lon="-0.65917">
        <ele>54</ele>
        <time>2023-11-01T23:22:29Z</time>
      </trkpt>
      <trkpt lat="46.50893" lon="-0.65996">
        <ele>52</ele>
        <time>2023-11-01T23:23:44Z</time>
      </trkpt>
      <trkpt lat="46.50959" lon="-0.66125">
        <ele>53</ele>
        <time>2023-11-01T23:26:12Z</time>
      </trkpt>
      <trkpt lat="46.50962" lon="-0.66193">
        <ele>54</ele>
        <time>2023-11-01T23:27:15Z</time>
      </trkpt>
      <trkpt lat="46.5103" lon="-0.6631">
        <ele>57</ele>
        <time>2023-11-01T23:29:35Z</time>
      </trkpt>
      <trkpt lat="46.51059" lon="-0.66431">
        <ele>60</ele>
        <time>2023-11-01T23:31:33Z</time>
      </trkpt>
      <trkpt lat="46.5066" lon="-0.66629">
        <ele>58</ele>
        <time>2023-11-01T23:40:56Z</time>
      </trkpt>
      <trkpt lat="46.50593" lon="-0.66801">
        <ele>60</ele>
        <time>2023-11-01T23:43:57Z</time>
      </trkpt>
    </trkseg>
  </trk>
</gpx>